Time;durP1;ratioP1;P1;durP2;ratioP2;P2;SDS_P1;SDS_P2;PMS_P1;PMS_P2;Temp;Humidity;BMP_temperature;BMP_pressure;BME280_temperature;BME280_humidity;BME280_pressure;Samples;Min_cycle;Max_cycle;Signal;HPM_P1;HPM_P2
2022/11/12 00:00:00;;;;;;;44.53;19.23;;;;;;;;;;1025529;28;20091;-74
2022/11/12 00:00:31;;;;;;;35.80;16.85;;;;;;;;;;1025546;28;20027;-74
2022/11/12 00:01:01;;;;;;;45.85;18.23;;;;;;;;;;1025340;28;20063;-74
2022/11/12 00:01:32;;;;;;;38.95;18.00;;;;;;;;;;1027334;28;20018;-74
2022/11/12 00:02:02;;;;;;;34.67;15.10;;;;;;;;;;1028579;28;20506;-74
2022/11/12 00:02:33;;;;;;;47.50;17.98;;;;;;;;;;1027955;28;20031;-74
2022/11/12 00:03:04;;;;;;;34.05;15.50;;;;;;;;;;1027681;28;20030;-74
2022/11/12 00:03:34;;;;;;;44.15;18.75;;;;;;;;;;1025679;28;20075;-74
2022/11/12 00:04:06;;;;;;;35.80;16.85;;;;;;;;;;1025668;28;20049;-74
2022/11/12 00:04:37;;;;;;;32.78;14.82;;;;;;;;;;1029795;28;20476;-74
2022/11/12 00:05:08;;;;;;;41.65;15.25;;;;;;;;;;1029579;28;20022;-74
2022/11/12 00:05:38;;;;;;;25.92;13.38;;;;;;;;;;1025489;28;20026;-74
2022/11/12 00:06:09;;;;;;;36.05;14.98;;;;;;;;;;1025117;28;20073;-74
2022/11/12 00:06:39;;;;;;;28.52;13.35;;;;;;;;;;1023386;29;20039;-74
2022/11/12 00:07:10;;;;;;;39.88;16.23;;;;;;;;;;1023717;29;20178;-74
2022/11/12 00:07:40;;;;;;;41.65;16.45;;;;;;;;;;1024833;28;20063;-74
2022/11/12 00:08:11;;;;;;;27.80;13.38;;;;;;;;;;1025710;28;20022;-74
2022/11/12 00:08:42;;;;;;;40.15;15.48;;;;;;;;;;1025556;28;20026;-74
2022/11/12 00:09:13;;;;;;;34.22;15.60;;;;;;;;;;1026772;28;20022;-74
2022/11/12 00:09:43;;;;;;;34.22;15.43;;;;;;;;;;1028605;28;20078;-74
2022/11/12 00:10:14;;;;;;;31.13;14.90;;;;;;;;;;1029421;28;20042;-74
2022/11/12 00:10:45;;;;;;;39.97;17.90;;;;;;;;;;1033643;28;20018;-74
2022/11/12 00:11:15;;;;;;;35.28;14.48;;;;;;;;;;1032446;28;20061;-74
2022/11/12 00:11:46;;;;;;;30.02;14.60;;;;;;;;;;1025449;28;20033;-74
2022/11/12 00:12:16;;;;;;;30.63;13.52;;;;;;;;;;1025793;28;20117;-74
2022/11/12 00:12:47;;;;;;;36.40;15.65;;;;;;;;;;1025519;28;20109;-74
2022/11/12 00:13:18;;;;;;;39.00;17.35;;;;;;;;;;1026336;28;20030;-74
2022/11/12 00:13:48;;;;;;;33.88;13.98;;;;;;;;;;1029496;28;20463;-74
2022/11/12 00:14:19;;;;;;;39.60;14.13;;;;;;;;;;1028501;28;20422;-74
2022/11/12 00:14:49;;;;;;;33.80;13.00;;;;;;;;;;1029040;28;20403;-74
2022/11/12 00:15:20;;;;;;;32.65;13.13;;;;;;;;;;1030553;28;20053;-74
2022/11/12 00:15:51;;;;;;;26.00;12.00;;;;;;;;;;1029720;28;20026;-74
2022/11/12 00:16:21;;;;;;;35.15;13.45;;;;;;;;;;1029882;28;20022;-74
2022/11/12 00:16:52;;;;;;;32.97;11.68;;;;;;;;;;1029785;28;20027;-74
2022/11/12 00:17:22;;;;;;;24.67;12.32;;;;;;;;;;1030058;28;20121;-74
2022/11/12 00:17:53;;;;;;;32.30;12.73;;;;;;;;;;1026693;28;20173;-74
2022/11/12 00:18:24;;;;;;;25.45;12.73;;;;;;;;;;1025399;28;20391;-74
2022/11/12 00:18:54;;;;;;;38.53;13.85;;;;;;;;;;1025580;28;20034;-74
2022/11/12 00:19:25;;;;;;;34.00;13.60;;;;;;;;;;1025937;28;20090;-74
2022/11/12 00:19:55;;;;;;;29.80;13.23;;;;;;;;;;1025556;28;20028;-74
2022/11/12 00:20:26;;;;;;;28.52;12.07;;;;;;;;;;1025048;28;20031;-74
2022/11/12 00:20:56;;;;;;;29.75;12.00;;;;;;;;;;1021526;29;20028;-74
2022/11/12 00:21:27;;;;;;;26.35;12.60;;;;;;;;;;1019094;29;20059;-74
2022/11/12 00:21:57;;;;;;;30.60;12.88;;;;;;;;;;1023465;29;20023;-74
2022/11/12 00:22:28;;;;;;;31.27;13.40;;;;;;;;;;1023693;28;20497;-74
2022/11/12 00:22:58;;;;;;;32.92;13.50;;;;;;;;;;1025087;28;20019;-74
2022/11/12 00:23:29;;;;;;;30.42;12.02;;;;;;;;;;1025806;28;20023;-74
2022/11/12 00:24:00;;;;;;;28.83;13.02;;;;;;;;;;1025998;28;20029;-74
2022/11/12 00:24:30;;;;;;;25.27;12.27;;;;;;;;;;1025594;28;20035;-74
2022/11/12 00:25:01;;;;;;;51.80;13.45;;;;;;;;;;1030864;28;20029;-74
2022/11/12 00:25:32;;;;;;;35.25;14.13;;;;;;;;;;1029583;28;20022;-74
2022/11/12 00:26:02;;;;;;;36.15;13.70;;;;;;;;;;1029437;28;20023;-74
2022/11/12 00:26:33;;;;;;;32.88;11.82;;;;;;;;;;1029197;28;20023;-74
2022/11/12 00:27:03;;;;;;;28.23;12.05;;;;;;;;;;1025456;28;20027;-74
2022/11/12 00:27:34;;;;;;;37.50;12.02;;;;;;;;;;1025763;28;20027;-74
2022/11/12 00:28:06;;;;;;;31.65;13.23;;;;;;;;;;1023302;29;20019;-74
2022/11/12 00:28:36;;;;;;;22.63;11.45;;;;;;;;;;1021448;28;20578;-74
2022/11/12 00:29:07;;;;;;;28.17;11.93;;;;;;;;;;1021392;29;20103;-74
2022/11/12 00:29:37;;;;;;;39.25;14.82;;;;;;;;;;1021849;28;20036;-74
2022/11/12 00:30:08;;;;;;;30.25;13.82;;;;;;;;;;1025581;28;20018;-74
2022/11/12 00:30:40;;;;;;;35.90;15.40;;;;;;;;;;1029790;28;20470;-74
2022/11/12 00:31:10;;;;;;;29.52;12.63;;;;;;;;;;1025648;28;20491;-74
2022/11/12 00:31:41;;;;;;;26.10;13.07;;;;;;;;;;1025581;28;20049;-74
2022/11/12 00:32:12;;;;;;;36.85;15.90;;;;;;;;;;1025558;28;20056;-74
2022/11/12 00:32:42;;;;;;;33.05;16.60;;;;;;;;;;1026775;28;20070;-74
2022/11/12 00:33:13;;;;;;;32.40;15.75;;;;;;;;;;1029805;28;20026;-74
2022/11/12 00:33:43;;;;;;;36.00;15.15;;;;;;;;;;1029460;28;20447;-74
2022/11/12 00:34:14;;;;;;;36.00;14.85;;;;;;;;;;1029421;28;20019;-74
2022/11/12 00:34:44;;;;;;;43.53;17.63;;;;;;;;;;1025619;28;20026;-74
2022/11/12 00:35:15;;;;;;;49.28;18.58;;;;;;;;;;1025589;28;20018;-74
2022/11/12 00:35:47;;;;;;;46.17;19.85;;;;;;;;;;1025204;28;20018;-74
2022/11/12 00:36:17;;;;;;;49.65;23.42;;;;;;;;;;1025614;28;20034;-74
2022/11/12 00:36:48;;;;;;;53.90;24.63;;;;;;;;;;1029394;28;20018;-74
2022/11/12 00:37:19;;;;;;;50.80;25.23;;;;;;;;;;1029510;28;20106;-74
2022/11/12 00:37:56;;;;;;;55.15;25.65;;;;;;;;;;1029440;28;20026;-74
2022/11/12 00:38:29;;;;;;;70.32;26.60;;;;;;;;;;1025561;28;20055;-74
2022/11/12 00:39:00;;;;;;;52.40;23.13;;;;;;;;;;1025608;28;20023;-74
2022/11/12 00:39:30;;;;;;;60.15;25.52;;;;;;;;;;1025580;28;20483;-74
2022/11/12 00:40:01;;;;;;;58.42;25.90;;;;;;;;;;1025782;28;20101;-74
2022/11/12 00:40:31;;;;;;;57.85;27.38;;;;;;;;;;1025588;28;20019;-74
2022/11/12 00:41:02;;;;;;;53.97;25.80;;;;;;;;;;1026485;28;20027;-74
2022/11/12 00:41:32;;;;;;;60.95;26.35;;;;;;;;;;1025862;28;20391;-74
2022/11/12 00:42:03;;;;;;;62.65;27.73;;;;;;;;;;1025373;28;20027;-74
2022/11/12 00:42:34;;;;;;;51.70;26.15;;;;;;;;;;1028986;28;20022;-74
2022/11/12 00:43:04;;;;;;;49.08;25.90;;;;;;;;;;1033446;28;20030;-74
2022/11/12 00:43:35;;;;;;;54.72;23.30;;;;;;;;;;1029209;28;20486;-74
2022/11/12 00:44:05;;;;;;;58.95;26.95;;;;;;;;;;1029071;28;20088;-74
2022/11/12 00:44:36;;;;;;;59.00;24.23;;;;;;;;;;1024668;28;20034;-74
2022/11/12 00:45:08;;;;;;;51.97;23.52;;;;;;;;;;1026376;28;20035;-74
2022/11/12 00:45:39;;;;;;;41.53;22.73;;;;;;;;;;1029420;28;20022;-74
2022/11/12 00:46:09;;;;;;;54.97;24.08;;;;;;;;;;1029576;28;20022;-74
2022/11/12 00:46:40;;;;;;;50.38;23.08;;;;;;;;;;1028768;28;20018;-74
2022/11/12 00:47:10;;;;;;;46.15;23.75;;;;;;;;;;1029441;28;20023;-74
2022/11/12 00:47:41;;;;;;;69.97;26.25;;;;;;;;;;1029852;28;20041;-74
2022/11/12 00:48:11;;;;;;;53.20;25.67;;;;;;;;;;1029967;28;20061;-74
2022/11/12 00:48:42;;;;;;;60.40;26.20;;;;;;;;;;1025160;28;20034;-74
2022/11/12 00:49:13;;;;;;;48.13;24.85;;;;;;;;;;1025866;28;20027;-74
2022/11/12 00:49:43;;;;;;;49.63;26.17;;;;;;;;;;1024371;28;20027;-74
2022/11/12 00:50:15;;;;;;;50.75;25.73;;;;;;;;;;1025484;28;20034;-74
2022/11/12 00:50:45;;;;;;;65.03;27.73;;;;;;;;;;1027923;28;20058;-74
2022/11/12 00:51:16;;;;;;;50.80;24.27;;;;;;;;;;1029041;28;20553;-74
2022/11/12 00:51:47;;;;;;;65.93;25.80;;;;;;;;;;1025483;28;20114;-74
2022/11/12 00:52:18;;;;;;;53.00;24.38;;;;;;;;;;1025944;28;20106;-74
2022/11/12 00:52:50;;;;;;;53.75;23.52;;;;;;;;;;1028750;28;20483;-74
2022/11/12 00:53:21;;;;;;;42.47;22.15;;;;;;;;;;1030636;28;20019;-74
2022/11/12 00:53:51;;;;;;;52.55;22.02;;;;;;;;;;1029635;28;20064;-74
2022/11/12 00:54:22;;;;;;;47.20;23.60;;;;;;;;;;1028920;28;20125;-74
2022/11/12 00:54:52;;;;;;;42.40;20.40;;;;;;;;;;1025653;28;20391;-74
2022/11/12 00:55:23;;;;;;;42.33;19.52;;;;;;;;;;1025674;28;20050;-74
2022/11/12 00:55:58;;;;;;;56.97;23.58;;;;;;;;;;1025072;28;20057;-74
2022/11/12 00:56:29;;;;;;;60.25;23.27;;;;;;;;;;1023911;28;20023;-74
2022/11/12 00:57:00;;;;;;;55.53;22.60;;;;;;;;;;1021344;29;20079;-74
2022/11/12 00:57:30;;;;;;;45.83;22.00;;;;;;;;;;1022036;29;20030;-74
2022/11/12 00:58:01;;;;;;;47.08;20.30;;;;;;;;;;1021703;28;20023;-74
2022/11/12 00:58:32;;;;;;;50.03;19.98;;;;;;;;;;1026220;28;20844;-75
2022/11/12 00:59:03;;;;;;;46.65;20.35;;;;;;;;;;1029039;28;20026;-74
2022/11/12 00:59:34;;;;;;;41.70;18.17;;;;;;;;;;1030469;28;20421;-74
2022/11/12 01:00:05;;;;;;;48.92;19.98;;;;;;;;;;1029523;28;20393;-74
2022/11/12 01:00:35;;;;;;;48.20;19.05;;;;;;;;;;1030499;28;20020;-74
2022/11/12 01:01:11;;;;;;;36.95;18.85;;;;;;;;;;1030913;28;20038;-74
2022/11/12 01:01:42;;;;;;;42.28;18.27;;;;;;;;;;1030074;28;20049;-74
2022/11/12 01:02:12;;;;;;;44.95;17.35;;;;;;;;;;1028039;28;20042;-74
2022/11/12 01:02:43;;;;;;;33.97;16.67;;;;;;;;;;1028987;28;20497;-74
2022/11/12 01:03:14;;;;;;;37.22;16.80;;;;;;;;;;1025299;28;20023;-74
2022/11/12 01:03:45;;;;;;;38.30;19.10;;;;;;;;;;1025189;28;20020;-74
2022/11/12 01:04:15;;;;;;;46.05;18.63;;;;;;;;;;1027234;28;20030;-74
2022/11/12 01:04:46;;;;;;;50.42;20.73;;;;;;;;;;1025944;28;20526;-74
2022/11/12 01:05:18;;;;;;;53.22;19.05;;;;;;;;;;1028446;28;20018;-74
2022/11/12 01:05:48;;;;;;;42.60;18.95;;;;;;;;;;1027883;28;20104;-74
2022/11/12 01:06:21;;;;;;;55.15;20.92;;;;;;;;;;1029836;28;20026;-75
2022/11/12 01:06:51;;;;;;;49.70;20.15;;;;;;;;;;1025443;28;20038;-75
2022/11/12 01:07:22;;;;;;;33.35;16.33;;;;;;;;;;1030344;28;20027;-75
2022/11/12 01:07:52;;;;;;;44.05;18.80;;;;;;;;;;1031549;28;20083;-74
2022/11/12 01:08:23;;;;;;;42.55;19.35;;;;;;;;;;1029267;28;20117;-74
2022/11/12 01:08:54;;;;;;;44.83;18.60;;;;;;;;;;1027801;28;20105;-74
2022/11/12 01:09:24;;;;;;;34.42;17.08;;;;;;;;;;1029170;28;20176;-74
2022/11/12 01:09:55;;;;;;;46.28;18.20;;;;;;;;;;1029096;28;20471;-74
2022/11/12 01:10:25;;;;;;;44.97;19.08;;;;;;;;;;1030031;28;20026;-74
2022/11/12 01:11:03;;;;;;;35.33;16.90;;;;;;;;;;1025213;28;20030;-74
2022/11/12 01:11:33;;;;;;;44.58;18.77;;;;;;;;;;1025929;28;20634;-74
2022/11/12 01:12:04;;;;;;;37.17;16.38;;;;;;;;;;1026459;28;20090;-74
2022/11/12 01:12:35;;;;;;;51.88;18.67;;;;;;;;;;1022301;28;20031;-74
2022/11/12 01:13:06;;;;;;;35.53;17.20;;;;;;;;;;1024744;28;20015;-74
2022/11/12 01:13:37;;;;;;;33.22;17.60;;;;;;;;;;1025395;28;20030;-74
2022/11/12 01:14:09;;;;;;;37.42;17.45;;;;;;;;;;1025140;28;20365;-74
2022/11/12 01:14:40;;;;;;;45.40;20.58;;;;;;;;;;1024830;28;20031;-74
2022/11/12 01:15:10;;;;;;;44.70;18.20;;;;;;;;;;1025077;28;20031;-74
2022/11/12 01:15:41;;;;;;;49.13;18.13;;;;;;;;;;1021458;29;20027;-74
2022/11/12 01:16:16;;;;;;;47.17;17.50;;;;;;;;;;1023284;29;20023;-74
2022/11/12 01:16:46;;;;;;;36.42;15.75;;;;;;;;;;1023628;28;20031;-74
2022/11/12 01:17:17;;;;;;;35.30;15.13;;;;;;;;;;1026327;28;20062;-74
2022/11/12 01:17:48;;;;;;;44.67;16.42;;;;;;;;;;1028951;28;20026;-74
2022/11/12 01:18:18;;;;;;;33.67;15.55;;;;;;;;;;1028115;28;20022;-74
2022/11/12 01:18:53;;;;;;;31.17;13.35;;;;;;;;;;1029342;28;20565;-74
2022/11/12 01:19:24;;;;;;;33.28;15.30;;;;;;;;;;1028366;28;20504;-75
2022/11/12 01:19:54;;;;;;;36.47;15.00;;;;;;;;;;1022604;28;20039;-75
2022/11/12 01:20:25;;;;;;;36.85;17.58;;;;;;;;;;1024586;28;20525;-75
2022/11/12 01:20:59;;;;;;;36.33;13.90;;;;;;;;;;1021809;29;20494;-75
2022/11/12 01:21:30;;;;;;;27.20;13.82;;;;;;;;;;1023547;28;20035;-75
2022/11/12 01:22:01;;;;;;;39.25;14.90;;;;;;;;;;1025640;28;20018;-75
2022/11/12 01:22:31;;;;;;;52.35;18.92;;;;;;;;;;1024993;28;20121;-75
2022/11/12 01:23:02;;;;;;;44.72;17.92;;;;;;;;;;1026070;28;20035;-75
2022/11/12 01:23:33;;;;;;;35.70;15.90;;;;;;;;;;1027566;28;20022;-75
2022/11/12 01:24:04;;;;;;;40.63;17.83;;;;;;;;;;1026915;28;20054;-75
2022/11/12 01:24:35;;;;;;;39.75;16.25;;;;;;;;;;1029352;28;20129;-76
2022/11/12 01:25:06;;;;;;;37.00;16.52;;;;;;;;;;1024822;28;20044;-76
2022/11/12 01:25:37;;;;;;;39.47;16.75;;;;;;;;;;1024958;28;20125;-75
2022/11/12 01:26:12;;;;;;;37.58;16.65;;;;;;;;;;1023440;28;20066;-75
2022/11/12 01:26:43;;;;;;;41.72;18.00;;;;;;;;;;1026184;28;20027;-75
2022/11/12 01:27:13;;;;;;;43.85;15.38;;;;;;;;;;1026079;28;20367;-75
2022/11/12 01:27:44;;;;;;;34.60;16.27;;;;;;;;;;1028430;28;20031;-75
2022/11/12 01:28:15;;;;;;;42.03;15.77;;;;;;;;;;1028492;28;20573;-75
2022/11/12 01:28:45;;;;;;;37.67;17.40;;;;;;;;;;1029190;28;20021;-75
2022/11/12 01:29:16;;;;;;;34.78;15.65;;;;;;;;;;1025439;28;20031;-75
2022/11/12 01:29:46;;;;;;;30.17;14.05;;;;;;;;;;1021981;28;20066;-75
2022/11/12 01:30:17;;;;;;;35.00;15.75;;;;;;;;;;1021464;28;20062;-76
2022/11/12 01:30:48;;;;;;;45.30;15.35;;;;;;;;;;1026941;28;20050;-76
2022/11/12 01:31:20;;;;;;;34.90;15.05;;;;;;;;;;1027076;28;20035;-76
2022/11/12 01:31:50;;;;;;;37.80;12.82;;;;;;;;;;1029110;28;20593;-76
2022/11/12 01:32:21;;;;;;;51.63;14.82;;;;;;;;;;1026094;28;20049;-76
2022/11/12 01:32:51;;;;;;;27.73;13.18;;;;;;;;;;1027489;28;20038;-75
2022/11/12 01:33:22;;;;;;;36.92;14.95;;;;;;;;;;1024163;28;20023;-75
2022/11/12 01:33:54;;;;;;;30.65;14.40;;;;;;;;;;1024801;28;20046;-74
2022/11/12 01:34:25;;;;;;;31.67;12.15;;;;;;;;;;1025192;28;20027;-75
2022/11/12 01:34:56;;;;;;;28.70;12.82;;;;;;;;;;1025938;28;20365;-75
2022/11/12 01:35:27;;;;;;;26.40;12.32;;;;;;;;;;1029099;28;20030;-75
2022/11/12 01:35:58;;;;;;;34.03;14.63;;;;;;;;;;1029921;28;20430;-75
2022/11/12 01:36:31;;;;;;;31.25;14.48;;;;;;;;;;1028778;28;20150;-75
2022/11/12 01:37:02;;;;;;;36.08;15.60;;;;;;;;;;1028609;28;20022;-75
2022/11/12 01:37:32;;;;;;;33.13;13.55;;;;;;;;;;1025083;28;20020;-75
2022/11/12 01:38:03;;;;;;;28.83;12.30;;;;;;;;;;1021774;28;20019;-75
2022/11/12 01:38:34;;;;;;;34.67;14.57;;;;;;;;;;1026739;28;20022;-75
2022/11/12 01:39:06;;;;;;;42.30;18.15;;;;;;;;;;1025407;28;20031;-75
2022/11/12 01:39:37;;;;;;;42.67;14.00;;;;;;;;;;1026313;28;20027;-75
2022/11/12 01:40:08;;;;;;;39.33;15.27;;;;;;;;;;1026742;28;20023;-75
2022/11/12 01:40:38;;;;;;;33.67;13.02;;;;;;;;;;1022730;28;20019;-75
2022/11/12 01:41:11;;;;;;;46.08;15.88;;;;;;;;;;1023047;29;20023;-75
2022/11/12 01:41:42;;;;;;;33.67;14.82;;;;;;;;;;1020840;29;20063;-75
2022/11/12 01:42:12;;;;;;;52.08;15.98;;;;;;;;;;1021358;29;20062;-75
2022/11/12 01:42:49;;;;;;;36.00;15.18;;;;;;;;;;1020793;29;20038;-75
2022/11/12 01:43:20;;;;;;;41.05;15.63;;;;;;;;;;1023578;28;20066;-75
2022/11/12 01:44:06;;;;;;;33.13;13.77;;;;;;;;;;1023010;28;20051;-75
2022/11/12 01:44:40;;;;;;;38.95;17.85;;;;;;;;;;1025131;28;20027;-75
2022/11/12 01:45:16;;;;;;;34.85;13.95;;;;;;;;;;1025887;28;20130;-75
2022/11/12 01:45:51;;;;;;;31.42;15.65;;;;;;;;;;1031153;28;20018;-76
2022/11/12 01:46:27;;;;;;;39.15;16.58;;;;;;;;;;1027023;28;20010;-75
2022/11/12 01:47:01;;;;;;;44.08;17.33;;;;;;;;;;1021245;29;20142;-76
2022/11/12 01:47:33;;;;;;;36.70;15.80;;;;;;;;;;1021974;29;20034;-75
2022/11/12 01:48:04;;;;;;;35.22;15.50;;;;;;;;;;1020990;29;20023;-75
2022/11/12 01:48:40;;;;;;;30.58;14.82;;;;;;;;;;1023046;28;20055;-75
2022/11/12 01:49:16;;;;;;;35.20;17.55;;;;;;;;;;1028340;28;20034;-75
2022/11/12 01:49:58;;;;;;;40.75;16.75;;;;;;;;;;1025232;28;20038;-75
2022/11/12 01:50:33;;;;;;;34.58;16.40;;;;;;;;;;1024889;28;20050;-75
2022/11/12 01:51:04;;;;;;;48.63;17.25;;;;;;;;;;1024861;28;20034;-75
2022/11/12 01:51:38;;;;;;;36.70;16.73;;;;;;;;;;1025078;28;20130;-75
2022/11/12 01:52:19;;;;;;;33.25;17.23;;;;;;;;;;1025854;28;20034;-75
2022/11/12 01:53:02;;;;;;;34.85;17.30;;;;;;;;;;1026032;28;20616;-75
2022/11/12 01:53:37;;;;;;;45.25;19.60;;;;;;;;;;1026088;28;20037;-75
2022/11/12 01:54:09;;;;;;;39.08;17.95;;;;;;;;;;1026490;28;20085;-75
2022/11/12 01:54:41;;;;;;;42.30;18.15;;;;;;;;;;1029059;28;20031;-75
2022/11/12 01:55:14;;;;;;;45.65;18.42;;;;;;;;;;1029997;28;20038;-75
2022/11/12 01:55:45;;;;;;;35.83;16.60;;;;;;;;;;1029330;28;20027;-75
2022/11/12 01:56:16;;;;;;;44.53;18.60;;;;;;;;;;1025242;28;20023;-75
2022/11/12 01:56:48;;;;;;;37.78;16.98;;;;;;;;;;1026009;28;20117;-75
2022/11/12 01:57:22;;;;;;;38.00;18.38;;;;;;;;;;1022478;28;20031;-75
2022/11/12 01:58:04;;;;;;;40.95;19.63;;;;;;;;;;1025792;28;20569;-75
2022/11/12 01:58:36;;;;;;;43.78;21.38;;;;;;;;;;1026982;28;20023;-77
2022/11/12 01:59:10;;;;;;;46.25;20.55;;;;;;;;;;1026188;28;20099;-76
2022/11/12 01:59:43;;;;;;;50.35;20.33;;;;;;;;;;1026990;28;20067;-75
2022/11/12 02:00:14;;;;;;;46.88;20.33;;;;;;;;;;1026215;28;20039;-75
2022/11/12 02:00:46;;;;;;;46.28;21.13;;;;;;;;;;1030917;28;20090;-75
2022/11/12 02:01:17;;;;;;;46.45;22.50;;;;;;;;;;1029860;28;20023;-75
2022/11/12 02:01:48;;;;;;;47.05;20.20;;;;;;;;;;1030493;28;20018;-75
2022/11/12 02:02:19;;;;;;;38.83;18.05;;;;;;;;;;1029738;28;20022;-75
2022/11/12 02:02:57;;;;;;;42.78;19.23;;;;;;;;;;1031543;28;20038;-75
2022/11/12 02:03:28;;;;;;;50.38;19.67;;;;;;;;;;1026143;28;20027;-75
2022/11/12 02:03:59;;;;;;;45.90;19.45;;;;;;;;;;1026072;28;20039;-75
2022/11/12 02:04:30;;;;;;;39.55;18.17;;;;;;;;;;1024967;28;20046;-75
2022/11/12 02:05:02;;;;;;;33.30;16.90;;;;;;;;;;1025835;28;20125;-76
2022/11/12 02:05:33;;;;;;;38.42;17.75;;;;;;;;;;1030827;28;20042;-75
2022/11/12 02:06:06;;;;;;;41.65;19.33;;;;;;;;;;1030390;28;20073;-75
2022/11/12 02:06:38;;;;;;;34.85;18.38;;;;;;;;;;1028439;28;20030;-73
2022/11/12 02:07:09;;;;;;;46.33;20.13;;;;;;;;;;1029023;28;20061;-74
2022/11/12 02:07:41;;;;;;;44.75;21.27;;;;;;;;;;1026567;28;20054;-75
2022/11/12 02:08:12;;;;;;;37.38;20.58;;;;;;;;;;1025208;28;20041;-75
2022/11/12 02:08:43;;;;;;;39.97;19.40;;;;;;;;;;1024552;28;20054;-75
2022/11/12 02:09:15;;;;;;;42.55;18.52;;;;;;;;;;1029224;28;20018;-75
2022/11/12 02:09:45;;;;;;;41.10;20.00;;;;;;;;;;1025280;28;20026;-75
2022/11/12 02:10:18;;;;;;;44.13;22.10;;;;;;;;;;1021396;29;20510;-74
2022/11/12 02:10:49;;;;;;;34.65;17.60;;;;;;;;;;1022686;29;20015;-75
2022/11/12 02:11:20;;;;;;;40.33;19.63;;;;;;;;;;1020780;28;20028;-75
2022/11/12 02:11:51;;;;;;;41.90;19.50;;;;;;;;;;1024309;28;20023;-75
2022/11/12 02:14:00;;;;;;;49.22;21.23;;;;;;;;;;1028682;28;20019;-75
2022/11/12 02:14:31;;;;;;;48.00;22.05;;;;;;;;;;1030332;28;20022;-75
2022/11/12 02:15:02;;;;;;;47.92;21.80;;;;;;;;;;1025860;28;20118;-76
2022/11/12 02:15:33;;;;;;;47.65;22.65;;;;;;;;;;1026068;28;20023;-76
2022/11/12 02:16:04;;;;;;;59.65;23.58;;;;;;;;;;1024089;28;20082;-76
2022/11/12 02:16:40;;;;;;;55.25;22.13;;;;;;;;;;1025541;28;20090;-75
2022/11/12 02:17:11;;;;;;;57.78;24.13;;;;;;;;;;1026489;28;20029;-76
2022/11/12 02:17:41;;;;;;;58.70;22.52;;;;;;;;;;1024434;28;20030;-74
2022/11/12 02:18:12;;;;;;;62.92;25.98;;;;;;;;;;1023943;28;20467;-75
2022/11/12 02:18:42;;;;;;;57.15;25.60;;;;;;;;;;1024054;28;20058;-75
2022/11/12 02:19:15;;;;;;;57.80;25.20;;;;;;;;;;1028392;28;20015;-75
2022/11/12 02:19:46;;;;;;;56.00;27.38;;;;;;;;;;1029235;28;20591;-75
2022/11/12 02:20:17;;;;;;;60.08;24.50;;;;;;;;;;1028108;28;20271;-75
2022/11/12 02:20:58;;;;;;;58.30;24.92;;;;;;;;;;1023639;28;20023;-76
2022/11/12 02:21:29;;;;;;;50.83;23.33;;;;;;;;;;1027359;28;20026;-76
2022/11/12 02:22:00;;;;;;;52.65;22.90;;;;;;;;;;1027131;28;20026;-76
2022/11/12 02:22:30;;;;;;;60.95;24.63;;;;;;;;;;1025927;28;20023;-76
2022/11/12 02:23:02;;;;;;;57.25;25.15;;;;;;;;;;1030345;28;20477;-75
2022/11/12 02:23:33;;;;;;;52.55;24.27;;;;;;;;;;1028670;28;20018;-75
2022/11/12 02:24:13;;;;;;;53.90;23.33;;;;;;;;;;1023639;28;20482;-75
2022/11/12 02:24:44;;;;;;;68.03;23.67;;;;;;;;;;1026718;28;20050;-75
2022/11/12 02:25:20;;;;;;;51.65;25.77;;;;;;;;;;1024945;28;20113;-75
2022/11/12 02:25:51;;;;;;;54.78;24.35;;;;;;;;;;1020901;29;20518;-74
2022/11/12 02:26:21;;;;;;;56.53;26.50;;;;;;;;;;1023182;28;20027;-75
2022/11/12 02:26:53;;;;;;;61.00;25.95;;;;;;;;;;1028553;28;20023;-75
2022/11/12 02:27:24;;;;;;;61.47;25.50;;;;;;;;;;1022694;28;20031;-75
2022/11/12 02:27:55;;;;;;;67.72;28.02;;;;;;;;;;1026077;28;20483;-75
2022/11/12 02:28:27;;;;;;;61.75;24.90;;;;;;;;;;1023109;28;20023;-75
2022/11/12 02:28:58;;;;;;;56.83;25.70;;;;;;;;;;1021672;29;20514;-75
2022/11/12 02:29:28;;;;;;;70.55;27.60;;;;;;;;;;1023733;28;20035;-75
2022/11/12 02:29:59;;;;;;;62.97;25.30;;;;;;;;;;1026911;28;20022;-75
2022/11/12 02:30:31;;;;;;;68.10;26.63;;;;;;;;;;1024365;28;20015;-75
2022/11/12 02:31:02;;;;;;;68.50;28.58;;;;;;;;;;1024436;28;20031;-75
2022/11/12 02:31:33;;;;;;;61.55;31.10;;;;;;;;;;1027729;28;20030;-75
2022/11/12 02:32:04;;;;;;;74.18;29.48;;;;;;;;;;1029836;28;20093;-76
2022/11/12 02:32:34;;;;;;;62.88;26.35;;;;;;;;;;1027809;28;20027;-75
2022/11/12 02:33:05;;;;;;;57.33;28.35;;;;;;;;;;1024499;28;20031;-75
2022/11/12 02:33:36;;;;;;;61.50;28.83;;;;;;;;;;1024660;28;20027;-76
2022/11/12 02:34:07;;;;;;;73.72;28.08;;;;;;;;;;1023839;28;20725;-76
2022/11/12 02:34:38;;;;;;;70.28;27.33;;;;;;;;;;1025407;28;20125;-76
2022/11/12 02:35:09;;;;;;;63.47;26.73;;;;;;;;;;1024346;28;20464;-75
2022/11/12 02:35:39;;;;;;;69.32;28.02;;;;;;;;;;1028525;28;20109;-76
2022/11/12 02:36:11;;;;;;;55.95;26.70;;;;;;;;;;1029125;28;20110;-76
2022/11/12 02:36:41;;;;;;;62.30;26.13;;;;;;;;;;1028811;28;20026;-76
2022/11/12 02:37:13;;;;;;;65.38;28.80;;;;;;;;;;1028660;28;20022;-76
2022/11/12 02:37:44;;;;;;;69.13;30.65;;;;;;;;;;1028360;28;20089;-74
2022/11/12 02:38:15;;;;;;;54.85;25.58;;;;;;;;;;1026085;28;20101;-76
2022/11/12 02:38:46;;;;;;;79.65;29.88;;;;;;;;;;1026770;28;20062;-75
2022/11/12 02:39:17;;;;;;;77.45;27.05;;;;;;;;;;1029025;28;20021;-74
2022/11/12 02:39:48;;;;;;;77.47;27.95;;;;;;;;;;1028799;28;20139;-74
2022/11/12 02:40:19;;;;;;;67.00;27.40;;;;;;;;;;1028635;28;20249;-74
2022/11/12 02:40:50;;;;;;;54.55;26.83;;;;;;;;;;1025210;28;20114;-75
2022/11/12 02:41:21;;;;;;;57.50;24.85;;;;;;;;;;1023819;28;20015;-75
2022/11/12 02:41:52;;;;;;;79.78;29.92;;;;;;;;;;1025790;28;20058;-75
2022/11/12 02:42:22;;;;;;;57.47;25.80;;;;;;;;;;1024450;28;20134;-75
2022/11/12 02:42:53;;;;;;;56.75;26.75;;;;;;;;;;1020127;28;20093;-75
2022/11/12 02:43:24;;;;;;;67.13;29.40;;;;;;;;;;1025728;28;20475;-76
2022/11/12 02:43:55;;;;;;;60.20;27.25;;;;;;;;;;1023305;28;20792;-75
2022/11/12 02:44:26;;;;;;;58.42;26.35;;;;;;;;;;1024676;28;20046;-74
2022/11/12 02:44:56;;;;;;;63.70;28.40;;;;;;;;;;1028548;28;20536;-77
2022/11/12 02:45:27;;;;;;;62.80;28.10;;;;;;;;;;1029033;28;20030;-76
2022/11/12 02:45:58;;;;;;;86.65;30.15;;;;;;;;;;1025775;28;21999;-75
2022/11/12 02:46:29;;;;;;;70.32;28.77;;;;;;;;;;1023947;28;20026;-75
2022/11/12 02:47:00;;;;;;;59.13;27.67;;;;;;;;;;1027813;28;20019;-76
2022/11/12 02:47:31;;;;;;;63.45;28.45;;;;;;;;;;1025497;28;20547;-76
2022/11/12 02:48:01;;;;;;;70.00;26.45;;;;;;;;;;1024977;28;20055;-76
2022/11/12 02:48:33;;;;;;;64.85;28.88;;;;;;;;;;1024765;28;20022;-74
2022/11/12 02:49:03;;;;;;;69.15;29.30;;;;;;;;;;1029106;28;20026;-75
2022/11/12 02:49:34;;;;;;;59.35;29.25;;;;;;;;;;1028714;28;20023;-75
2022/11/12 02:50:05;;;;;;;72.50;29.88;;;;;;;;;;1029430;28;20515;-75
2022/11/12 02:50:36;;;;;;;78.40;29.38;;;;;;;;;;1029422;28;20066;-74
2022/11/12 02:51:07;;;;;;;89.25;30.00;;;;;;;;;;1029896;28;20071;-74
2022/11/12 02:51:38;;;;;;;81.85;32.15;;;;;;;;;;1025318;28;20038;-74
2022/11/12 02:52:10;;;;;;;75.78;29.38;;;;;;;;;;1025797;28;20019;-75
2022/11/12 02:52:40;;;;;;;74.38;30.55;;;;;;;;;;1024614;28;20023;-74
2022/11/12 02:53:11;;;;;;;64.45;29.10;;;;;;;;;;1020352;28;20035;-76
2022/11/12 02:53:42;;;;;;;74.38;31.35;;;;;;;;;;1021622;28;20701;-75
2022/11/12 02:54:12;;;;;;;64.35;29.95;;;;;;;;;;1024848;28;20027;-75
2022/11/12 02:54:43;;;;;;;59.15;29.27;;;;;;;;;;1024691;28;20038;-76
2022/11/12 02:55:14;;;;;;;62.17;29.88;;;;;;;;;;1020443;29;20028;-75
2022/11/12 02:55:46;;;;;;;66.20;30.77;;;;;;;;;;1019612;28;20066;-75
2022/11/12 02:56:17;;;;;;;74.97;29.85;;;;;;;;;;1021419;28;20023;-75
2022/11/12 02:56:48;;;;;;;78.60;32.35;;;;;;;;;;1024846;28;20027;-75
2022/11/12 02:57:19;;;;;;;67.07;29.40;;;;;;;;;;1028572;28;20470;-75
2022/11/12 02:57:50;;;;;;;63.28;28.48;;;;;;;;;;1026502;28;20129;-75
2022/11/12 02:58:22;;;;;;;66.65;27.80;;;;;;;;;;1021098;28;20039;-75
2022/11/12 02:58:53;;;;;;;61.40;27.85;;;;;;;;;;1023977;28;20035;-75
2022/11/12 02:59:23;;;;;;;79.75;29.45;;;;;;;;;;1024141;28;20027;-75
2022/11/12 02:59:54;;;;;;;72.38;29.73;;;;;;;;;;1024906;28;20406;-75
2022/11/12 03:00:25;;;;;;;61.22;27.55;;;;;;;;;;1031154;28;20034;-76
2022/11/12 03:00:57;;;;;;;77.85;29.85;;;;;;;;;;1030408;28;20490;-76
2022/11/12 03:01:27;;;;;;;56.38;26.35;;;;;;;;;;1028025;28;20165;-76
2022/11/12 03:01:59;;;;;;;59.22;24.83;;;;;;;;;;1023169;28;20463;-75
2022/11/12 03:02:31;;;;;;;64.60;27.55;;;;;;;;;;1023478;28;20071;-75
2022/11/12 03:03:03;;;;;;;62.40;26.77;;;;;;;;;;1023428;28;20030;-74
2022/11/12 03:03:34;;;;;;;70.32;28.00;;;;;;;;;;1018028;29;20118;-74
2022/11/12 03:04:05;;;;;;;64.65;27.48;;;;;;;;;;1019736;28;20087;-74